sensor_id;sensor_type;location;lat;lon;timestamp;temperature;humidity
2721;DHT22;1368;49.484;11.112;2024-02-26T00:02:16;4.90;99.90
2721;DHT22;1368;49.484;11.112;2024-02-26T00:04:42;4.90;99.90
2721;DHT22;1368;49.484;11.112;2024-02-26T00:07:08;5.10;99.90
2721;DHT22;1368;49.484;11.112;2024-02-26T00:09:33;4.90;99.90
2721;DHT22;1368;49.484;11.112;2024-02-26T00:12:04;4.80;99.90
2721;DHT22;1368;49.484;11.112;2024-02-26T00:14:30;4.70;99.90
2721;DHT22;1368;49.484;11.112;2024-02-26T00:16:56;4.60;99.90
2721;DHT22;1368;49.484;11.112;2024-02-26T00:19:22;4.70;99.90
2721;DHT22;1368;49.484;11.112;2024-02-26T00:21:47;4.60;99.90
2721;DHT22;1368;49.484;11.112;2024-02-26T00:24:13;4.50;99.90
2721;DHT22;1368;49.484;11.112;2024-02-26T00:26:39;4.50;99.90
2721;DHT22;1368;49.484;11.112;2024-02-26T00:29:05;4.50;99.90
2721;DHT22;1368;49.484;11.112;2024-02-26T00:31:30;4.60;99.90
2721;DHT22;1368;49.484;11.112;2024-02-26T00:33:56;4.40;99.90
2721;DHT22;1368;49.484;11.112;2024-02-26T00:36:22;4.50;99.90
2721;DHT22;1368;49.484;11.112;2024-02-26T00:38:47;4.50;99.90
2721;DHT22;1368;49.484;11.112;2024-02-26T00:41:17;4.50;99.90
2721;DHT22;1368;49.484;11.112;2024-02-26T00:43:42;4.50;99.90
2721;DHT22;1368;49.484;11.112;2024-02-26T00:46:08;4.50;99.90
2721;DHT22;1368;49.484;11.112;2024-02-26T00:48:33;4.40;99.90
2721;DHT22;1368;49.484;11.112;2024-02-26T00:50:59;4.50;99.90
2721;DHT22;1368;49.484;11.112;2024-02-26T00:53:24;4.40;99.90
2721;DHT22;1368;49.484;11.112;2024-02-26T00:55:50;4.40;99.90
2721;DHT22;1368;49.484;11.112;2024-02-26T00:58:16;4.30;99.90
2721;DHT22;1368;49.484;11.112;2024-02-26T01:00:42;4.30;99.90
2721;DHT22;1368;49.484;11.112;2024-02-26T01:03:07;4.40;99.90
2721;DHT22;1368;49.484;11.112;2024-02-26T01:05:33;4.40;99.90
2721;DHT22;1368;49.484;11.112;2024-02-26T01:07:59;4.30;99.90
2721;DHT22;1368;49.484;11.112;2024-02-26T01:10:24;4.60;99.90
2721;DHT22;1368;49.484;11.112;2024-02-26T01:12:50;4.40;99.90
2721;DHT22;1368;49.484;11.112;2024-02-26T01:15:15;4.40;99.90
2721;DHT22;1368;49.484;11.112;2024-02-26T01:17:41;4.50;99.90
2721;DHT22;1368;49.484;11.112;2024-02-26T01:20:07;4.40;99.90
2721;DHT22;1368;49.484;11.112;2024-02-26T01:22:34;4.40;99.90
2721;DHT22;1368;49.484;11.112;2024-02-26T01:24:59;4.40;99.90
2721;DHT22;1368;49.484;11.112;2024-02-26T01:27:25;4.50;99.90
2721;DHT22;1368;49.484;11.112;2024-02-26T01:29:52;4.40;99.90
2721;DHT22;1368;49.484;11.112;2024-02-26T01:32:18;4.40;99.90
2721;DHT22;1368;49.484;11.112;2024-02-26T01:34:45;4.30;99.90
2721;DHT22;1368;49.484;11.112;2024-02-26T01:37:10;4.40;99.90
2721;DHT22;1368;49.484;11.112;2024-02-26T01:39:36;4.50;99.90
2721;DHT22;1368;49.484;11.112;2024-02-26T01:42:02;4.40;99.90
2721;DHT22;1368;49.484;11.112;2024-02-26T01:44:27;4.40;99.90
2721;DHT22;1368;49.484;11.112;2024-02-26T01:46:54;4.70;99.90
2721;DHT22;1368;49.484;11.112;2024-02-26T01:49:19;4.40;99.90
2721;DHT22;1368;49.484;11.112;2024-02-26T01:51:45;4.20;99.90
2721;DHT22;1368;49.484;11.112;2024-02-26T01:54:11;4.20;99.90
2721;DHT22;1368;49.484;11.112;2024-02-26T01:56:38;4.10;99.90
2721;DHT22;1368;49.484;11.112;2024-02-26T01:59:05;4.10;99.90
2721;DHT22;1368;49.484;11.112;2024-02-26T02:01:32;4.10;99.90
2721;DHT22;1368;49.484;11.112;2024-02-26T02:03:59;4.00;99.90
2721;DHT22;1368;49.484;11.112;2024-02-26T02:06:25;4.00;99.90
2721;DHT22;1368;49.484;11.112;2024-02-26T02:08:52;4.00;99.90
2721;DHT22;1368;49.484;11.112;2024-02-26T02:11:19;3.90;99.90
2721;DHT22;1368;49.484;11.112;2024-02-26T02:13:44;3.90;99.90
2721;DHT22;1368;49.484;11.112;2024-02-26T02:16:10;4.00;99.90
2721;DHT22;1368;49.484;11.112;2024-02-26T02:18:36;4.00;99.90
2721;DHT22;1368;49.484;11.112;2024-02-26T02:21:01;4.00;99.90
2721;DHT22;1368;49.484;11.112;2024-02-26T02:23:27;4.10;99.90
2721;DHT22;1368;49.484;11.112;2024-02-26T02:25:53;4.10;99.90
2721;DHT22;1368;49.484;11.112;2024-02-26T02:28:20;4.10;99.90
2721;DHT22;1368;49.484;11.112;2024-02-26T02:30:46;4.10;99.90
2721;DHT22;1368;49.484;11.112;2024-02-26T02:33:12;4.00;99.90
2721;DHT22;1368;49.484;11.112;2024-02-26T02:35:39;4.00;99.90
2721;DHT22;1368;49.484;11.112;2024-02-26T02:38:05;4.00;99.90
2721;DHT22;1368;49.484;11.112;2024-02-26T02:40:31;4.00;99.90
2721;DHT22;1368;49.484;11.112;2024-02-26T02:42:56;4.10;99.90
2721;DHT22;1368;49.484;11.112;2024-02-26T02:45:22;4.20;99.90
2721;DHT22;1368;49.484;11.112;2024-02-26T02:47:47;4.20;99.90
2721;DHT22;1368;49.484;11.112;2024-02-26T02:50:13;4.30;99.90
2721;DHT22;1368;49.484;11.112;2024-02-26T02:52:38;4.50;99.90
2721;DHT22;1368;49.484;11.112;2024-02-26T02:55:04;4.50;99.90
2721;DHT22;1368;49.484;11.112;2024-02-26T02:57:30;4.70;99.90
2721;DHT22;1368;49.484;11.112;2024-02-26T02:59:56;4.70;99.90
2721;DHT22;1368;49.484;11.112;2024-02-26T03:02:21;4.90;99.90
2721;DHT22;1368;49.484;11.112;2024-02-26T03:04:50;4.90;99.90
2721;DHT22;1368;49.484;11.112;2024-02-26T03:07:15;5.00;99.90
2721;DHT22;1368;49.484;11.112;2024-02-26T03:09:41;5.20;99.90
2721;DHT22;1368;49.484;11.112;2024-02-26T03:12:07;5.30;99.90
2721;DHT22;1368;49.484;11.112;2024-02-26T03:14:32;5.40;99.90
2721;DHT22;1368;49.484;11.112;2024-02-26T03:16:58;5.30;99.90
2721;DHT22;1368;49.484;11.112;2024-02-26T03:19:23;5.10;99.90
2721;DHT22;1368;49.484;11.112;2024-02-26T03:21:49;5.00;99.90
2721;DHT22;1368;49.484;11.112;2024-02-26T03:24:15;4.90;99.90
2721;DHT22;1368;49.484;11.112;2024-02-26T03:26:40;4.90;99.90
2721;DHT22;1368;49.484;11.112;2024-02-26T03:29:06;4.70;99.90
2721;DHT22;1368;49.484;11.112;2024-02-26T03:31:31;4.70;99.90
2721;DHT22;1368;49.484;11.112;2024-02-26T03:33:57;4.60;99.90
2721;DHT22;1368;49.484;11.112;2024-02-26T03:36:22;4.70;99.90
2721;DHT22;1368;49.484;11.112;2024-02-26T03:38:48;4.80;99.90
2721;DHT22;1368;49.484;11.112;2024-02-26T03:41:14;4.90;99.90
2721;DHT22;1368;49.484;11.112;2024-02-26T03:43:40;5.20;99.90
2721;DHT22;1368;49.484;11.112;2024-02-26T03:46:09;5.20;99.90
2721;DHT22;1368;49.484;11.112;2024-02-26T03:48:36;5.30;99.90
2721;DHT22;1368;49.484;11.112;2024-02-26T03:51:02;7.80;99.90
2721;DHT22;1368;49.484;11.112;2024-02-26T03:53:28;5.70;99.90
2721;DHT22;1368;49.484;11.112;2024-02-26T03:55:53;5.80;99.90
2721;DHT22;1368;49.484;11.112;2024-02-26T03:58:20;5.90;99.90
2721;DHT22;1368;49.484;11.112;2024-02-26T04:00:46;5.90;99.90
2721;DHT22;1368;49.484;11.112;2024-02-26T04:03:13;5.90;99.90
2721;DHT22;1368;49.484;11.112;2024-02-26T04:05:38;5.90;99.90
2721;DHT22;1368;49.484;11.112;2024-02-26T04:08:05;5.90;99.90
2721;DHT22;1368;49.484;11.112;2024-02-26T04:10:32;5.80;99.90
2721;DHT22;1368;49.484;11.112;2024-02-26T04:13:00;5.70;99.90
2721;DHT22;1368;49.484;11.112;2024-02-26T04:15:25;5.80;99.90
2721;DHT22;1368;49.484;11.112;2024-02-26T04:17:51;5.70;99.90
2721;DHT22;1368;49.484;11.112;2024-02-26T04:20:16;5.90;99.90
2721;DHT22;1368;49.484;11.112;2024-02-26T04:22:42;6.00;99.90
2721;DHT22;1368;49.484;11.112;2024-02-26T04:25:08;6.10;99.90
2721;DHT22;1368;49.484;11.112;2024-02-26T04:27:34;6.10;99.90
2721;DHT22;1368;49.484;11.112;2024-02-26T04:29:59;6.10;99.90
2721;DHT22;1368;49.484;11.112;2024-02-26T04:32:25;6.10;99.90
2721;DHT22;1368;49.484;11.112;2024-02-26T04:34:50;5.80;99.90
2721;DHT22;1368;49.484;11.112;2024-02-26T04:37:16;5.70;99.90
2721;DHT22;1368;49.484;11.112;2024-02-26T04:39:41;5.70;99.90
2721;DHT22;1368;49.484;11.112;2024-02-26T04:42:07;5.90;99.90
2721;DHT22;1368;49.484;11.112;2024-02-26T04:44:33;5.90;99.90
2721;DHT22;1368;49.484;11.112;2024-02-26T04:46:58;5.50;99.90
2721;DHT22;1368;49.484;11.112;2024-02-26T04:49:24;5.10;99.90
2721;DHT22;1368;49.484;11.112;2024-02-26T04:51:49;6.60;99.90
2721;DHT22;1368;49.484;11.112;2024-02-26T04:54:15;4.80;99.90
2721;DHT22;1368;49.484;11.112;2024-02-26T04:56:41;4.70;99.90
2721;DHT22;1368;49.484;11.112;2024-02-26T04:59:06;4.70;99.90
2721;DHT22;1368;49.484;11.112;2024-02-26T05:01:32;4.60;99.90
2721;DHT22;1368;49.484;11.112;2024-02-26T05:03:57;4.60;99.90
2721;DHT22;1368;49.484;11.112;2024-02-26T05:06:23;4.60;99.90
2721;DHT22;1368;49.484;11.112;2024-02-26T05:08:48;4.50;99.90
2721;DHT22;1368;49.484;11.112;2024-02-26T05:11:14;4.60;99.90
2721;DHT22;1368;49.484;11.112;2024-02-26T05:13:39;4.50;99.90
2721;DHT22;1368;49.484;11.112;2024-02-26T05:16:05;4.40;99.90
2721;DHT22;1368;49.484;11.112;2024-02-26T05:18:31;4.40;99.90
2721;DHT22;1368;49.484;11.112;2024-02-26T05:20:56;4.40;99.90
2721;DHT22;1368;49.484;11.112;2024-02-26T05:23:22;4.40;99.90
2721;DHT22;1368;49.484;11.112;2024-02-26T05:25:48;4.90;99.90
2721;DHT22;1368;49.484;11.112;2024-02-26T05:28:14;4.40;99.90
2721;DHT22;1368;49.484;11.112;2024-02-26T05:30:42;4.40;99.90
2721;DHT22;1368;49.484;11.112;2024-02-26T05:33:07;4.40;99.90
2721;DHT22;1368;49.484;11.112;2024-02-26T05:35:33;4.30;99.90
2721;DHT22;1368;49.484;11.112;2024-02-26T05:37:58;4.50;99.90
2721;DHT22;1368;49.484;11.112;2024-02-26T05:40:24;4.60;99.90
2721;DHT22;1368;49.484;11.112;2024-02-26T05:42:49;4.60;99.90
2721;DHT22;1368;49.484;11.112;2024-02-26T05:45:15;4.50;99.90
2721;DHT22;1368;49.484;11.112;2024-02-26T05:47:41;4.50;99.90
2721;DHT22;1368;49.484;11.112;2024-02-26T05:50:11;4.70;99.90
2721;DHT22;1368;49.484;11.112;2024-02-26T05:52:37;5.00;99.90
2721;DHT22;1368;49.484;11.112;2024-02-26T05:55:04;5.10;99.90
2721;DHT22;1368;49.484;11.112;2024-02-26T05:57:30;5.00;99.90
2721;DHT22;1368;49.484;11.112;2024-02-26T05:59:56;5.20;99.90
2721;DHT22;1368;49.484;11.112;2024-02-26T06:02:21;5.40;99.90
2721;DHT22;1368;49.484;11.112;2024-02-26T06:04:47;5.50;99.90
2721;DHT22;1368;49.484;11.112;2024-02-26T06:07:13;5.40;99.90
2721;DHT22;1368;49.484;11.112;2024-02-26T06:09:38;5.40;99.90
2721;DHT22;1368;49.484;11.112;2024-02-26T06:12:05;5.50;99.90
2721;DHT22;1368;49.484;11.112;2024-02-26T06:14:30;5.40;99.90
2721;DHT22;1368;49.484;11.112;2024-02-26T06:16:56;5.30;99.90
2721;DHT22;1368;49.484;11.112;2024-02-26T06:19:21;5.20;99.90
2721;DHT22;1368;49.484;11.112;2024-02-26T06:21:47;5.10;99.90
2721;DHT22;1368;49.484;11.112;2024-02-26T06:24:13;5.00;99.90
2721;DHT22;1368;49.484;11.112;2024-02-26T06:26:38;5.00;99.90
2721;DHT22;1368;49.484;11.112;2024-02-26T06:29:04;5.10;99.90
2721;DHT22;1368;49.484;11.112;2024-02-26T06:31:29;4.80;99.90
2721;DHT22;1368;49.484;11.112;2024-02-26T06:33:55;4.90;99.90
2721;DHT22;1368;49.484;11.112;2024-02-26T06:36:22;4.80;99.90
2721;DHT22;1368;49.484;11.112;2024-02-26T06:38:47;4.70;99.90
2721;DHT22;1368;49.484;11.112;2024-02-26T06:41:14;4.80;99.90
2721;DHT22;1368;49.484;11.112;2024-02-26T06:43:40;5.40;99.90
2721;DHT22;1368;49.484;11.112;2024-02-26T06:46:06;5.20;99.90
2721;DHT22;1368;49.484;11.112;2024-02-26T06:48:31;5.30;99.90
2721;DHT22;1368;49.484;11.112;2024-02-26T06:50:57;5.30;99.90
2721;DHT22;1368;49.484;11.112;2024-02-26T06:53:23;5.50;99.90
2721;DHT22;1368;49.484;11.112;2024-02-26T06:55:48;5.80;99.90
2721;DHT22;1368;49.484;11.112;2024-02-26T06:58:15;5.90;99.90
2721;DHT22;1368;49.484;11.112;2024-02-26T07:00:41;6.00;99.90
2721;DHT22;1368;49.484;11.112;2024-02-26T07:03:06;6.00;99.90
2721;DHT22;1368;49.484;11.112;2024-02-26T07:05:32;6.00;99.90
2721;DHT22;1368;49.484;11.112;2024-02-26T07:07:57;6.20;99.90
2721;DHT22;1368;49.484;11.112;2024-02-26T07:10:23;6.20;99.90
2721;DHT22;1368;49.484;11.112;2024-02-26T07:12:48;6.40;99.90
2721;DHT22;1368;49.484;11.112;2024-02-26T07:15:14;6.50;99.90
2721;DHT22;1368;49.484;11.112;2024-02-26T07:17:40;6.50;99.90
2721;DHT22;1368;49.484;11.112;2024-02-26T07:20:08;6.40;99.90
2721;DHT22;1368;49.484;11.112;2024-02-26T07:22:34;6.20;99.90
2721;DHT22;1368;49.484;11.112;2024-02-26T07:24:59;6.30;99.90
2721;DHT22;1368;49.484;11.112;2024-02-26T07:27:25;6.00;99.90
2721;DHT22;1368;49.484;11.112;2024-02-26T07:29:50;5.90;99.90
2721;DHT22;1368;49.484;11.112;2024-02-26T07:32:16;5.60;99.90
2721;DHT22;1368;49.484;11.112;2024-02-26T07:34:41;5.80;99.90
2721;DHT22;1368;49.484;11.112;2024-02-26T07:37:10;6.00;99.90
2721;DHT22;1368;49.484;11.112;2024-02-26T07:39:36;6.70;99.90
2721;DHT22;1368;49.484;11.112;2024-02-26T07:42:02;6.70;99.90
2721;DHT22;1368;49.484;11.112;2024-02-26T07:44:27;7.00;99.90
2721;DHT22;1368;49.484;11.112;2024-02-26T07:46:53;7.30;99.90
2721;DHT22;1368;49.484;11.112;2024-02-26T07:49:19;7.20;99.90
2721;DHT22;1368;49.484;11.112;2024-02-26T07:51:44;7.00;99.90
2721;DHT22;1368;49.484;11.112;2024-02-26T07:54:10;7.20;99.90
2721;DHT22;1368;49.484;11.112;2024-02-26T07:56:35;7.20;99.90
2721;DHT22;1368;49.484;11.112;2024-02-26T07:59:01;7.10;99.90
2721;DHT22;1368;49.484;11.112;2024-02-26T08:01:26;7.00;99.90
2721;DHT22;1368;49.484;11.112;2024-02-26T08:03:55;7.00;99.90
2721;DHT22;1368;49.484;11.112;2024-02-26T08:06:21;7.00;99.90
2721;DHT22;1368;49.484;11.112;2024-02-26T08:08:47;7.10;99.90
2721;DHT22;1368;49.484;11.112;2024-02-26T08:11:14;7.10;99.90
2721;DHT22;1368;49.484;11.112;2024-02-26T08:13:41;7.00;99.90
2721;DHT22;1368;49.484;11.112;2024-02-26T08:16:06;6.80;99.90
2721;DHT22;1368;49.484;11.112;2024-02-26T08:18:32;6.70;99.90
2721;DHT22;1368;49.484;11.112;2024-02-26T08:20:57;6.80;99.90
2721;DHT22;1368;49.484;11.112;2024-02-26T08:23:23;7.00;99.90
2721;DHT22;1368;49.484;11.112;2024-02-26T08:25:49;7.30;99.90
2721;DHT22;1368;49.484;11.112;2024-02-26T08:28:14;7.60;99.90
2721;DHT22;1368;49.484;11.112;2024-02-26T08:30:43;8.00;99.90
2721;DHT22;1368;49.484;11.112;2024-02-26T08:33:09;8.20;99.90
2721;DHT22;1368;49.484;11.112;2024-02-26T08:35:35;7.90;99.90
2721;DHT22;1368;49.484;11.112;2024-02-26T08:38:01;7.90;99.90
2721;DHT22;1368;49.484;11.112;2024-02-26T08:40:26;8.00;99.90
2721;DHT22;1368;49.484;11.112;2024-02-26T08:42:52;8.40;99.90
2721;DHT22;1368;49.484;11.112;2024-02-26T08:45:17;8.60;99.90
2721;DHT22;1368;49.484;11.112;2024-02-26T08:47:45;8.50;99.90
2721;DHT22;1368;49.484;11.112;2024-02-26T08:50:11;8.40;99.90
2721;DHT22;1368;49.484;11.112;2024-02-26T08:52:37;8.40;99.90
2721;DHT22;1368;49.484;11.112;2024-02-26T08:55:04;8.50;99.90
2721;DHT22;1368;49.484;11.112;2024-02-26T08:57:31;8.30;99.90
2721;DHT22;1368;49.484;11.112;2024-02-26T08:59:58;8.20;99.90
2721;DHT22;1368;49.484;11.112;2024-02-26T09:02:24;8.10;99.90
2721;DHT22;1368;49.484;11.112;2024-02-26T09:04:49;8.00;99.90
2721;DHT22;1368;49.484;11.112;2024-02-26T09:07:16;8.10;99.90
2721;DHT22;1368;49.484;11.112;2024-02-26T09:09:42;8.40;99.90
2721;DHT22;1368;49.484;11.112;2024-02-26T09:12:08;8.80;99.90
2721;DHT22;1368;49.484;11.112;2024-02-26T09:14:33;8.80;99.90
2721;DHT22;1368;49.484;11.112;2024-02-26T09:16:59;8.80;99.90
2721;DHT22;1368;49.484;11.112;2024-02-26T09:19:25;9.20;99.90
2721;DHT22;1368;49.484;11.112;2024-02-26T09:21:52;9.70;99.90
2721;DHT22;1368;49.484;11.112;2024-02-26T09:24:22;9.50;99.90
2721;DHT22;1368;49.484;11.112;2024-02-26T09:26:48;10.20;99.90
2721;DHT22;1368;49.484;11.112;2024-02-26T09:29:14;10.00;99.90
2721;DHT22;1368;49.484;11.112;2024-02-26T09:31:40;10.10;99.90
2721;DHT22;1368;49.484;11.112;2024-02-26T09:34:07;10.20;99.90
2721;DHT22;1368;49.484;11.112;2024-02-26T09:36:36;10.30;99.90
2721;DHT22;1368;49.484;11.112;2024-02-26T09:39:01;10.50;99.90
2721;DHT22;1368;49.484;11.112;2024-02-26T09:41:28;10.40;99.90
2721;DHT22;1368;49.484;11.112;2024-02-26T09:43:57;10.20;99.90
2721;DHT22;1368;49.484;11.112;2024-02-26T09:46:25;10.30;99.90
2721;DHT22;1368;49.484;11.112;2024-02-26T09:48:51;10.40;99.90
2721;DHT22;1368;49.484;11.112;2024-02-26T09:54:25;10.40;99.90
2721;DHT22;1368;49.484;11.112;2024-02-26T09:56:54;10.10;99.90
2721;DHT22;1368;49.484;11.112;2024-02-26T09:59:23;9.90;99.90
2721;DHT22;1368;49.484;11.112;2024-02-26T10:01:49;9.70;99.90
2721;DHT22;1368;49.484;11.112;2024-02-26T10:04:15;9.70;99.90
2721;DHT22;1368;49.484;11.112;2024-02-26T10:06:41;9.80;99.90
2721;DHT22;1368;49.484;11.112;2024-02-26T10:09:09;10.20;99.90
2721;DHT22;1368;49.484;11.112;2024-02-26T10:11:36;10.00;99.90
2721;DHT22;1368;49.484;11.112;2024-02-26T10:14:02;10.00;99.90
2721;DHT22;1368;49.484;11.112;2024-02-26T10:16:28;10.20;99.90
2721;DHT22;1368;49.484;11.112;2024-02-26T10:18:54;10.60;99.90
2721;DHT22;1368;49.484;11.112;2024-02-26T10:21:20;10.30;99.90
2721;DHT22;1368;49.484;11.112;2024-02-26T10:23:47;10.20;99.90
2721;DHT22;1368;49.484;11.112;2024-02-26T10:26:13;10.40;99.90
2721;DHT22;1368;49.484;11.112;2024-02-26T10:28:43;10.50;99.90
2721;DHT22;1368;49.484;11.112;2024-02-26T10:31:09;10.80;99.90
2721;DHT22;1368;49.484;11.112;2024-02-26T10:33:36;11.00;99.90
2721;DHT22;1368;49.484;11.112;2024-02-26T10:36:05;11.60;99.90
2721;DHT22;1368;49.484;11.112;2024-02-26T10:38:36;11.20;99.90
2721;DHT22;1368;49.484;11.112;2024-02-26T10:41:04;11.20;99.90
2721;DHT22;1368;49.484;11.112;2024-02-26T10:43:31;11.30;99.90
2721;DHT22;1368;49.484;11.112;2024-02-26T10:45:57;11.80;99.90
2721;DHT22;1368;49.484;11.112;2024-02-26T10:48:23;12.00;99.90
2721;DHT22;1368;49.484;11.112;2024-02-26T10:50:49;12.00;99.90
2721;DHT22;1368;49.484;11.112;2024-02-26T10:53:17;12.10;99.90
2721;DHT22;1368;49.484;11.112;2024-02-26T10:55:53;12.20;99.90
2721;DHT22;1368;49.484;11.112;2024-02-26T10:58:20;12.70;99.90
2721;DHT22;1368;49.484;11.112;2024-02-26T11:00:47;13.10;99.10
2721;DHT22;1368;49.484;11.112;2024-02-26T11:03:15;12.80;99.20
2721;DHT22;1368;49.484;11.112;2024-02-26T11:05:47;13.30;99.10
2721;DHT22;1368;49.484;11.112;2024-02-26T11:08:14;13.70;98.30
2721;DHT22;1368;49.484;11.112;2024-02-26T11:10:40;13.60;98.00
2721;DHT22;1368;49.484;11.112;2024-02-26T11:13:06;14.00;98.30
2721;DHT22;1368;49.484;11.112;2024-02-26T11:15:35;14.50;97.90
2721;DHT22;1368;49.484;11.112;2024-02-26T11:18:01;14.30;96.50
2721;DHT22;1368;49.484;11.112;2024-02-26T11:20:30;14.40;96.30
2721;DHT22;1368;49.484;11.112;2024-02-26T11:22:57;14.40;96.50
2721;DHT22;1368;49.484;11.112;2024-02-26T11:25:23;15.20;96.30
2721;DHT22;1368;49.484;11.112;2024-02-26T11:28:01;14.70;96.20
2721;DHT22;1368;49.484;11.112;2024-02-26T11:30:31;14.40;95.80
2721;DHT22;1368;49.484;11.112;2024-02-26T11:32:58;14.10;96.30
2721;DHT22;1368;49.484;11.112;2024-02-26T11:35:24;14.00;95.80
2721;DHT22;1368;49.484;11.112;2024-02-26T11:37:56;14.30;96.80
2721;DHT22;1368;49.484;11.112;2024-02-26T11:40:24;13.80;96.40
2721;DHT22;1368;49.484;11.112;2024-02-26T11:42:51;13.30;96.90
2721;DHT22;1368;49.484;11.112;2024-02-26T11:48:20;12.90;97.60
2721;DHT22;1368;49.484;11.112;2024-02-26T11:50:47;12.90;97.60
2721;DHT22;1368;49.484;11.112;2024-02-26T11:55:45;13.30;97.30
2721;DHT22;1368;49.484;11.112;2024-02-26T11:58:11;13.00;97.60
2721;DHT22;1368;49.484;11.112;2024-02-26T12:00:36;13.30;98.10
2721;DHT22;1368;49.484;11.112;2024-02-26T12:03:02;13.60;96.80
2721;DHT22;1368;49.484;11.112;2024-02-26T12:05:32;13.90;97.10
2721;DHT22;1368;49.484;11.112;2024-02-26T12:08:04;13.60;96.50
2721;DHT22;1368;49.484;11.112;2024-02-26T12:10:36;14.10;96.70
2721;DHT22;1368;49.484;11.112;2024-02-26T12:13:11;14.10;96.00
2721;DHT22;1368;49.484;11.112;2024-02-26T12:15:44;13.70;95.70
2721;DHT22;1368;49.484;11.112;2024-02-26T12:18:12;13.80;95.60
2721;DHT22;1368;49.484;11.112;2024-02-26T12:20:41;14.30;96.50
2721;DHT22;1368;49.484;11.112;2024-02-26T12:23:06;14.80;97.30
2721;DHT22;1368;49.484;11.112;2024-02-26T12:25:33;13.80;97.10
2721;DHT22;1368;49.484;11.112;2024-02-26T12:27:59;13.80;97.00
2721;DHT22;1368;49.484;11.112;2024-02-26T12:30:25;13.80;96.60
2721;DHT22;1368;49.484;11.112;2024-02-26T12:32:52;13.70;96.20
2721;DHT22;1368;49.484;11.112;2024-02-26T12:35:22;13.40;95.90
2721;DHT22;1368;49.484;11.112;2024-02-26T12:38:14;13.30;95.90
2721;DHT22;1368;49.484;11.112;2024-02-26T12:40:40;13.40;95.80
2721;DHT22;1368;49.484;11.112;2024-02-26T12:43:06;13.80;96.20
2721;DHT22;1368;49.484;11.112;2024-02-26T12:45:32;13.00;96.50
2721;DHT22;1368;49.484;11.112;2024-02-26T12:47:59;13.10;96.10
2721;DHT22;1368;49.484;11.112;2024-02-26T12:50:24;12.80;96.60
2721;DHT22;1368;49.484;11.112;2024-02-26T12:52:51;12.80;96.40
2721;DHT22;1368;49.484;11.112;2024-02-26T12:55:19;12.90;96.90
2721;DHT22;1368;49.484;11.112;2024-02-26T12:57:46;13.00;96.90
2721;DHT22;1368;49.484;11.112;2024-02-26T13:00:18;13.20;97.20
2721;DHT22;1368;49.484;11.112;2024-02-26T13:02:44;13.20;96.30
2721;DHT22;1368;49.484;11.112;2024-02-26T13:05:12;13.40;96.10
2721;DHT22;1368;49.484;11.112;2024-02-26T13:07:45;13.50;95.90
2721;DHT22;1368;49.484;11.112;2024-02-26T13:10:13;13.50;95.80
2721;DHT22;1368;49.484;11.112;2024-02-26T13:12:47;13.40;94.60
2721;DHT22;1368;49.484;11.112;2024-02-26T13:15:20;13.70;94.30
2721;DHT22;1368;49.484;11.112;2024-02-26T13:17:46;13.60;94.30
2721;DHT22;1368;49.484;11.112;2024-02-26T13:20:12;13.90;94.60
2721;DHT22;1368;49.484;11.112;2024-02-26T13:22:39;14.20;94.20
2721;DHT22;1368;49.484;11.112;2024-02-26T13:25:05;14.10;92.90
2721;DHT22;1368;49.484;11.112;2024-02-26T13:27:32;14.00;93.60
2721;DHT22;1368;49.484;11.112;2024-02-26T13:30:11;13.80;93.70
2721;DHT22;1368;49.484;11.112;2024-02-26T13:32:40;13.80;93.70
2721;DHT22;1368;49.484;11.112;2024-02-26T13:35:13;13.80;93.40
2721;DHT22;1368;49.484;11.112;2024-02-26T13:37:39;13.80;93.50
2721;DHT22;1368;49.484;11.112;2024-02-26T13:40:10;13.80;93.50
2721;DHT22;1368;49.484;11.112;2024-02-26T13:42:37;14.00;93.00
2721;DHT22;1368;49.484;11.112;2024-02-26T13:45:03;14.40;93.10
2721;DHT22;1368;49.484;11.112;2024-02-26T13:47:34;14.60;91.50
2721;DHT22;1368;49.484;11.112;2024-02-26T13:50:01;14.30;91.40
2721;DHT22;1368;49.484;11.112;2024-02-26T13:52:27;14.10;90.80
2721;DHT22;1368;49.484;11.112;2024-02-26T13:54:52;14.00;90.40
2721;DHT22;1368;49.484;11.112;2024-02-26T13:57:19;13.90;88.60
2721;DHT22;1368;49.484;11.112;2024-02-26T13:59:45;13.90;89.40
2721;DHT22;1368;49.484;11.112;2024-02-26T14:02:11;13.80;87.00
2721;DHT22;1368;49.484;11.112;2024-02-26T14:04:37;13.90;87.10
2721;DHT22;1368;49.484;11.112;2024-02-26T14:07:03;14.00;86.90
2721;DHT22;1368;49.484;11.112;2024-02-26T14:09:29;14.00;87.50
2721;DHT22;1368;49.484;11.112;2024-02-26T14:11:55;14.10;88.90
2721;DHT22;1368;49.484;11.112;2024-02-26T14:14:20;14.00;90.10
2721;DHT22;1368;49.484;11.112;2024-02-26T14:16:46;13.70;91.00
2721;DHT22;1368;49.484;11.112;2024-02-26T14:19:11;13.60;91.50
2721;DHT22;1368;49.484;11.112;2024-02-26T14:21:37;13.50;91.60
2721;DHT22;1368;49.484;11.112;2024-02-26T14:24:03;13.40;91.50
2721;DHT22;1368;49.484;11.112;2024-02-26T14:26:29;13.30;92.60
2721;DHT22;1368;49.484;11.112;2024-02-26T14:28:54;13.30;92.80
2721;DHT22;1368;49.484;11.112;2024-02-26T14:31:21;13.10;93.20
2721;DHT22;1368;49.484;11.112;2024-02-26T14:33:46;13.00;93.70
2721;DHT22;1368;49.484;11.112;2024-02-26T14:36:13;13.10;93.50
2721;DHT22;1368;49.484;11.112;2024-02-26T14:38:39;13.10;93.50
2721;DHT22;1368;49.484;11.112;2024-02-26T14:41:05;12.80;93.90
2721;DHT22;1368;49.484;11.112;2024-02-26T14:43:31;12.60;94.40
2721;DHT22;1368;49.484;11.112;2024-02-26T14:45:58;12.60;94.60
2721;DHT22;1368;49.484;11.112;2024-02-26T14:48:23;12.40;94.70
2721;DHT22;1368;49.484;11.112;2024-02-26T14:50:49;12.60;95.10
2721;DHT22;1368;49.484;11.112;2024-02-26T14:53:16;12.40;95.00
2721;DHT22;1368;49.484;11.112;2024-02-26T14:55:42;12.40;95.40
2721;DHT22;1368;49.484;11.112;2024-02-26T14:58:07;12.20;95.40
2721;DHT22;1368;49.484;11.112;2024-02-26T15:00:35;12.80;95.50
2721;DHT22;1368;49.484;11.112;2024-02-26T15:03:01;12.20;95.40
2721;DHT22;1368;49.484;11.112;2024-02-26T15:05:26;12.20;95.30
2721;DHT22;1368;49.484;11.112;2024-02-26T15:07:52;12.20;95.00
2721;DHT22;1368;49.484;11.112;2024-02-26T15:10:17;12.60;95.70
2721;DHT22;1368;49.484;11.112;2024-02-26T15:12:44;12.10;95.70
2721;DHT22;1368;49.484;11.112;2024-02-26T15:15:09;12.10;95.60
2721;DHT22;1368;49.484;11.112;2024-02-26T15:17:35;12.20;95.80
2721;DHT22;1368;49.484;11.112;2024-02-26T15:20:01;12.20;95.70
2721;DHT22;1368;49.484;11.112;2024-02-26T15:22:27;12.50;95.60
2721;DHT22;1368;49.484;11.112;2024-02-26T15:24:53;12.50;95.70
2721;DHT22;1368;49.484;11.112;2024-02-26T15:27:18;12.60;95.70
2721;DHT22;1368;49.484;11.112;2024-02-26T15:29:44;12.30;95.70
2721;DHT22;1368;49.484;11.112;2024-02-26T15:32:10;12.20;95.90
2721;DHT22;1368;49.484;11.112;2024-02-26T15:34:36;12.10;96.00
2721;DHT22;1368;49.484;11.112;2024-02-26T15:37:02;12.10;96.10
2721;DHT22;1368;49.484;11.112;2024-02-26T15:39:28;12.00;96.40
2721;DHT22;1368;49.484;11.112;2024-02-26T15:41:54;12.20;96.40
2721;DHT22;1368;49.484;11.112;2024-02-26T15:44:19;12.60;96.40
2721;DHT22;1368;49.484;11.112;2024-02-26T15:46:45;12.20;96.50
2721;DHT22;1368;49.484;11.112;2024-02-26T15:49:10;12.10;96.70
2721;DHT22;1368;49.484;11.112;2024-02-26T15:51:36;12.10;96.70
2721;DHT22;1368;49.484;11.112;2024-02-26T15:54:02;12.20;96.70
2721;DHT22;1368;49.484;11.112;2024-02-26T15:56:28;12.10;96.90
2721;DHT22;1368;49.484;11.112;2024-02-26T15:58:54;11.80;97.30